EGGD

Bristol International Airport

Bristol, United Kingdom
METAR EGGD 170150Z AUTO 26007KT 9999 NCD 03/03 Q1024
Observed Flight Rules
Dec-17 @ 01:50 UTC (27 minutes ago) Visual Flight Rules
Wind Visibility Clouds
260° at 7 knots 10,000+ meters
  • Clear skies
Temperatures Readings
Current 3°C / 37°F
Dewpoint 3°C / 37°F
Humidity 100%
Altimeter 30.24" Hg
Pressure 1024 hPa
Elevation 189
METAR EGGD 170150Z AUTO 26007KT 9999 NCD 03/03 Q1024
Observed Flight Rules
Dec-17 @ 01:50 UTC
(27 minutes ago)
VFR
Wind Visibility
260° at 7 knots 10,000+ meters
Clouds
  • Clear skies
Temperature Dewpoint
3°C / 37°F 3°C / 37°F
Humidity Altimeter Pressure
100% 30.24" Hg 1024 hPa